Date,TemperatureHighF,TemperatureAvgF,TemperatureLowF,DewpointHighF,DewpointAvgF,DewpointLowF,HumidityHigh,HumidityAvg,HumidityLow,PressureMaxIn,PressureMinIn,WindSpeedMaxMPH,WindSpeedAvgMPH,GustSpeedMaxMPH,PrecipitationSumIn
2013-1-27,39.6,36.4,33.8,34.5,26.6,23.3,82,68,61,29.97,29.97,8,2,12,0.00
2013-1-28,46.4,36.8,29.8,26.2,22.8,20.6,72,57,38,30.30,28.97,17,4,22,0.00
2013-1-29,61.2,43.1,28.8,31.3,26.4,20.9,74,55,25,30.27,30.00,12,3,15,0.00
2013-1-30,63.5,52.4,44.8,31.4,28.6,26.3,54,41,25,30.34,30.17,17,6,27,0.00
2013-1-31,68.7,55.1,45.9,31.4,29.6,25.6,51,39,20,30.30,30.07,14,4,18,0.00
2013-2-1,66.7,56.3,46.6,31.5,30.1,26.2,54,37,24,30.25,30.07,14,5,21,0.00
2013-2-2,61.7,55.4,48.6,45.1,32.7,27.5,86,45,28,30.26,30.14,15,5,20,0.03
2013-2-3,73.2,55.0,43.0,52.0,34.9,22.9,83,50,26,30.23,29.96,12,3,16,0.14
2013-2-4,69.8,55.5,44.6,31.0,24.7,18.5,48,32,14,30.12,29.91,14,4,18,0.00
2013-2-5,68.4,52.4,41.5,42.2,30.6,21.6,86,48,18,30.12,29.86,17,4,22,0.00
2013-2-6,65.8,49.2,37.9,38.7,28.5,15.2,94,53,18,30.16,29.92,11,3,16,0.00
2013-2-7,61.2,45.8,35.6,42.0,31.7,15.5,91,60,36,30.19,29.88,17,6,23,0.00
2013-2-8,44.8,36.2,28.2,34.7,30.3,24.6,96,80,51,30.01,29.81,22,7,27,0.00
2013-2-9,49.8,36.3,25.5,32.7,25.9,19.7,90,69,33,30.16,29.94,14,4,21,0.04
2013-2-10,50.4,37.7,26.2,35.6,28.3,16.4,91,72,30,30.18,29.96,10,3,13,0.00
2013-2-11,51.6,41.2,31.8,30.5,13.5,0.8,88,36,21,30.29,30.08,15,4,21,0.00
2013-2-12,57.7,44.2,34.2,18.6,8.6,-0.4,31,23,20,30.40,30.19,13,3,18,0.00
2013-2-13,63.1,50.1,39.2,22.9,17.2,8.4,47,28,18,30.35,30.07,18,4,24,0.00
2013-2-14,65.8,56.0,47.5,22.7,19.1,14.1,30,24,17,30.21,30.05,19,6,24,0.00
2013-2-15,66.0,57.2,48.6,21.5,18.9,17.2,34,23,16,30.28,30.13,19,8,29,0.00
2013-2-16,66.2,54.9,46.2,20.0,16.0,10.5,26,21,16,30.27,29.98,17,7,23,0.00
2013-2-17,68.9,52.7,40.5,38.3,21.4,8.5,81,34,14,30.06,29.78,14,4,19,0.00
2013-2-18,62.8,46.7,34.3,40.6,34.6,25.4,95,66,31,30.12,29.84,14,5,22,0.00
2013-2-19,49.1,39.5,32.0,39.0,33.8,29.6,95,81,48,29.97,29.73,24,10,29,0.04
2013-2-20,51.3,36.5,27.5,32.5,24.8,18.0,97,66,30,30.09,29.74,11,2,17,0.13
2013-2-21,52.2,39.1,27.3,29.6,21.7,10.5,76,53,23,30.21,29.94,17,4,23,0.07
2013-2-22,61.5,45.0,31.1,27.7,21.0,14.7,69,42,19,30.26,30.03,10,3,12,0.00
2013-2-23,62.6,47.5,34.9,31.1,26.0,16.6,69,45,22,30.24,29.83,21,6,27,0.00
2013-2-24,53.8,44.3,35.8,28.4,9.3,-0.3,65,24,19,30.25,30.06,21,9,32,0.08
2013-2-25,64.2,49.5,39.7,21.1,14.0,5.9,45,25,17,30.29,30.00,13,4,17,0.00
2013-2-26,61.5,49.4,38.7,27.0,17.6,11.3,52,30,18,30.20,29.97,19,6,29,0.00
2013-2-27,61.2,50.5,42.3,19.2,12.5,6.6,24,21,18,30.36,30.18,16,6,22,0.00
2013-2-28,66.4,53.7,41.5,19.6,14.1,6.5,24,21,15,30.41,30.23,17,6,24,0.00
2013-3-1,73.6,59.6,48.0,23.1,17.7,13.9,29,20,12,30.41,30.13,20,6,26,0.00
2013-3-2,76.8,62.4,53.4,25.8,20.2,14.9,25,20,13,30.31,30.00,14,5,18,0.00
2013-3-3,68.0,57.2,43.7,54.2,28.3,15.1,97,36,19,30.13,29.86,23,7,31,0.00
2013-3-4,70.2,52.9,40.5,43.6,38.0,29.2,95,61,23,30.15,29.89,11,3,17,0.00
2013-3-5,67.6,50.0,38.7,46.6,40.5,24.6,99,76,21,30.15,29.85,19,6,27,0.00
2013-3-6,54.0,44.3,37.9,42.1,39.6,37.5,99,84,57,30.15,30.00,17,8,25,0.00
2013-3-7,50.5,43.6,39.7,41.8,36.8,30.7,99,79,54,30.01,29.85,18,8,24,0.01
2013-3-8,43.9,38.3,31.6,37.9,34.2,29.8,95,85,71,30.04,29.81,14,4,17,0.43
2013-3-9,57.2,44.7,32.9,39.1,31.9,26.2,98,64,34,30.27,30.04,14,4,19,0.27
2013-3-10,66.4,53.8,42.4,28.0,19.5,13.5,56,28,15,30.34,30.11,21,6,26,0.00
2013-3-11,73.6,58.5,48.9,49.2,19.4,14.0,88,23,12,30.24,29.95,17,5,22,0.00
2013-3-12,78.4,61.7,48.4,28.0,21.6,15.7,44,23,13,30.16,29.92,15,5,22,0.00
2013-3-13,82.6,67.6,56.7,28.0,22.0,18.2,33,18,12,30.16,29.95,14,5,20,0.00
2013-3-14,87.1,69.8,56.8,36.6,27.3,19.9,40,22,12,30.15,29.90,14,4,17,0.00
2013-3-15,84.9,67.4,55.0,41.6,30.6,20.0,48,28,11,30.06,29.79,19,5,22,0.00
2013-3-16,80.2,64.1,50.0,32.4,24.5,16.5,49,24,12,30.00,29.73,17,4,21,0.00
2013-3-17,78.6,61.9,50.0,37.9,27.7,16.9,52,30,12,30.02,29.76,49,4,21,1.98
2013-3-18,75.4,56.3,46.4,46.9,25.8,-3.9,88,37,12,30.10,29.85,12,3,15,0.00
2013-3-19,77.2,59.8,47.7,44.6,33.2,21.8,85,40,15,30.12,29.88,17,4,20,0.02
2013-3-20,70.5,59.3,49.5,43.4,37.9,30.8,62,46,28,30.10,29.90,15,3,19,0.00
2013-3-21,74.5,59.4,46.0,41.4,29.7,13.5,72,38,12,30.00,29.68,16,4,21,0.00
2013-3-22,71.4,56.1,45.0,34.8,23.2,13.1,55,31,13,29.96,29.73,18,5,25,0.00
2013-3-23,71.6,56.4,46.2,41.2,20.8,12.5,54,27,13,30.06,29.84,20,4,28,0.00
2013-3-24,72.5,58.7,46.2,34.0,21.1,11.9,53,25,12,30.05,29.80,13,3,17,0.00
2013-3-25,76.3,59.7,45.1,37.2,26.3,18.2,60,30,14,30.02,29.78,14,4,21,0.00
2013-3-26,72.7,57.6,42.4,43.4,34.0,19.6,73,46,14,30.00,29.78,17,4,20,0.00
2013-3-27,69.1,55.6,44.8,45.0,41.5,38.0,83,62,35,30.07,29.83,16,4,21,0.00
2013-3-28,72.7,56.8,43.2,47.3,39.7,19.9,95,60,14,30.11,29.89,21,4,26,0.00
2013-3-29,77.4,61.2,46.2,43.4,39.0,27.7,82,49,21,30.15,29.91,14,4,23,0.00
2013-3-30,74.5,61.1,50.2,44.0,36.5,27.4,72,43,19,30.11,29.91,18,6,24,0.00
2013-3-31,59.4,52.0,45.3,48.0,43.8,30.6,96,75,50,30.11,29.97,16,7,22,0.00
2013-4-1,62.8,50.1,40.1,46.1,42.4,38.3,99,78,42,30.18,29.98,14,6,22,0.00
2013-4-2,75.2,57.3,41.4,45.0,38.1,23.6,91,55,16,30.14,29.84,17,4,21,0.00
2013-4-3,81.3,64.1,50.0,44.4,33.1,24.6,56,34,14,30.09,29.85,13,4,17,2.00
2013-4-4,73.2,60.2,49.5,48.3,38.8,24.8,84,50,18,30.09,29.89,21,6,27,0.00
2013-4-5,69.1,57.0,46.4,46.9,40.8,22.2,90,59,25,30.11,29.90,17,5,24,0.00
2013-4-6,75.7,59.1,44.8,41.2,34.0,28.8,72,43,20,30.10,29.83,17,4,21,0.00
2013-4-7,76.8,59.0,46.9,41.8,32.2,19.3,69,40,13,30.02,29.70,16,5,24,0.00
2013-4-8,55.0,48.3,45.0,44.5,32.5,13.4,92,56,24,29.88,29.66,28,9,38,0.01
2013-4-9,54.5,45.2,38.7,32.7,24.2,14.9,61,45,21,30.07,29.87,17,4,25,0.00
2013-4-10,77.4,61.0,49.6,24.2,18.7,13.1,34,20,12,30.11,29.86,17,6,26,0.00
2013-4-11,75.4,61.7,50.0,41.1,32.1,19.2,64,35,21,30.04,29.65,14,4,21,0.00
2013-4-12,83.5,65.2,51.1,47.1,37.6,23.7,66,41,12,29.84,29.60,13,4,18,0.00
2013-4-13,75.0,60.4,48.4,49.0,41.2,30.6,92,54,21,29.88,29.68,18,6,26,0.00
2013-4-14,66.4,53.6,46.6,47.4,46.2,44.8,99,78,49,29.86,29.68,17,7,22,0.00
2013-4-15,60.3,50.6,42.3,45.3,42.1,39.1,97,75,49,29.85,29.72,23,11,27,0.00
2013-4-16,57.4,46.9,38.8,39.9,25.0,13.6,92,47,20,30.04,29.83,20,6,26,0.00
2013-4-17,63.0,50.8,41.5,23.4,18.7,13.5,47,29,17,30.23,29.99,17,6,24,0.00
2013-4-18,68.0,55.8,44.8,20.0,15.6,7.9,29,21,14,30.27,30.08,17,6,27,0.00
2013-4-19,78.6,62.7,50.0,25.1,18.3,12.4,26,18,12,30.22,29.88,14,4,19,0.00
2013-4-20,82.9,67.4,52.5,33.5,25.6,17.9,36,22,11,30.05,29.77,14,4,21,0.00
2013-4-21,84.9,68.4,52.7,34.0,27.9,19.9,39,24,11,30.02,29.79,15,5,20,0.00
2013-4-22,81.1,64.3,49.6,45.5,36.2,27.2,68,38,16,30.02,29.73,14,4,19,0.00
2013-4-23,79.5,64.7,47.3,41.8,30.0,16.5,76,34,12,29.94,29.74,20,6,27,0.02
2013-4-24,75.9,57.1,45.0,51.1,42.1,25.6,99,63,17,29.98,29.73,17,6,24,0.00
2013-4-25,68.2,55.0,46.4,46.9,44.4,40.7,99,71,39,30.14,29.91,17,7,25,0.00
2013-4-26,83.5,62.8,43.2,46.9,39.7,21.2,89,51,11,30.19,29.92,15,4,20,0.00
2013-4-27,88.9,71.0,53.4,42.8,32.4,23.3,59,28,12,30.17,29.85,14,4,18,0.00
2013-4-28,91.6,72.9,59.9,42.0,32.0,25.7,37,23,11,30.03,29.71,14,3,20,2.03
2013-4-29,88.0,71.7,55.9,51.1,31.6,12.9,67,27,11,29.89,29.61,14,4,20,0.00
2013-4-30,77.4,61.4,50.7,50.4,47.9,40.9,95,65,30,29.89,29.64,15,5,21,0.00
2013-5-1,80.8,67.1,47.3,49.9,28.2,16.3,95,34,11,30.06,29.88,18,7,30,0.02
2013-5-2,77.4,68.8,61.2,24.2,19.1,16.3,19,15,12,30.20,30.02,22,9,30,0.01
2013-5-3,88.3,71.3,57.9,31.4,21.2,16.3,21,15,11,30.06,29.66,14,5,17,0.00
2013-5-4,79.7,65.6,49.3,49.7,28.4,9.0,91,30,13,29.85,29.56,20,6,24,0.00
2013-5-5,59.9,51.9,46.4,46.6,43.0,39.9,95,73,49,29.91,29.79,22,9,26,0.00
2013-5-6,59.4,50.5,46.8,50.5,45.5,41.9,99,84,55,30.02,29.86,18,7,23,0.10
2013-5-7,62.1,52.0,43.5,45.4,43.6,40.2,98,75,47,30.08,29.92,13,6,20,0.00
2013-5-8,67.6,54.1,43.7,46.7,44.2,41.6,94,71,44,30.13,29.93,14,5,21,0.00
2013-5-9,74.8,58.2,43.7,50.9,45.3,40.4,91,65,30,30.15,29.89,12,3,17,0.00
2013-5-10,85.5,68.5,52.0,48.5,44.3,32.1,76,46,15,30.11,29.85,12,4,16,0.00
2013-5-11,91.4,76.3,61.9,45.7,37.8,28.3,52,28,11,30.09,29.86,12,4,17,0.00
2013-5-12,93.9,79.2,65.7,45.2,36.6,27.4,39,23,11,30.08,29.82,12,4,17,0.00
2013-5-13,94.1,80.5,67.1,45.2,35.3,25.3,35,21,11,30.00,29.77,20,5,30,0.00
2013-5-14,84.2,72.3,59.5,41.0,30.2,21.4,45,23,11,29.97,29.74,23,6,28,0.00
2013-5-15,79.9,66.4,52.9,52.9,44.7,37.4,73,47,28,30.01,29.81,16,4,20,0.00
2013-5-16,75.2,62.0,51.8,52.2,47.6,40.8,89,62,36,29.97,29.76,14,5,24,0.00
2013-5-17,72.3,59.5,49.6,50.6,47.3,43.2,90,66,37,29.99,29.80,14,5,21,0.00
2013-5-18,78.3,63.6,45.9,46.0,36.2,18.3,82,42,13,30.06,29.83,14,3,18,0.00
2013-5-19,85.8,67.9,52.3,43.8,26.0,17.9,38,22,12,30.02,29.73,13,4,18,0.00
2013-5-20,86.0,71.8,59.4,44.5,31.2,20.5,46,25,11,29.97,29.76,15,5,23,0.00
2013-5-21,85.8,72.0,56.3,49.9,35.5,20.9,63,29,14,29.96,29.68,18,6,24,2.16
2013-5-22,74.7,61.9,50.0,50.2,44.2,32.3,83,56,26,29.84,29.62,19,6,27,0.00
2013-5-23,68.2,56.8,44.4,47.9,38.7,19.2,81,52,30,29.95,29.77,17,7,24,0.00
2013-5-24,72.0,57.7,42.1,47.5,39.8,24.8,85,55,19,30.00,29.81,18,6,24,0.00
2013-5-25,70.9,58.0,44.1,47.6,44.2,39.1,98,65,33,30.01,29.84,15,5,21,0.00
2013-5-26,73.2,59.7,45.1,50.2,45.0,40.2,90,62,32,30.03,29.87,19,5,24,0.00
2013-5-27,82.6,65.5,50.0,47.1,36.1,22.7,80,40,12,30.02,29.72,14,4,20,0.00
2013-5-28,76.8,63.9,52.2,48.7,40.8,21.0,70,45,16,29.89,29.66,17,4,25,0.00
2013-5-29,83.1,70.2,56.1,47.7,34.4,19.4,43,28,13,29.82,29.59,17,5,25,0.00
2013-5-30,89.4,73.0,58.5,51.9,35.9,19.4,56,29,12,29.87,29.63,14,5,21,0.00
2013-5-31,95.2,75.7,59.2,54.1,35.9,19.2,55,27,11,29.88,29.63,17,5,24,0.00
2013-6-1,98.8,81.7,68.0,48.9,37.0,28.1,44,22,11,29.85,29.57,13,4,20,0.00
2013-6-2,90.1,74.0,57.2,55.1,45.7,34.2,86,39,20,29.81,29.55,18,5,26,0.00
2013-6-3,80.4,64.4,51.1,54.0,51.6,46.2,99,68,34,29.87,29.67,14,6,21,0.00
2013-6-4,82.4,64.4,50.4,55.0,48.6,39.4,99,65,23,29.96,29.73,15,6,19,0.00
2013-6-5,85.5,69.4,52.2,53.1,49.0,39.7,85,53,26,29.98,29.73,14,5,18,0.00
2013-6-6,89.6,72.8,57.2,55.0,49.5,43.9,72,48,22,29.92,29.69,15,5,21,0.00
2013-6-7,98.4,77.6,59.0,55.1,50.3,33.5,74,44,12,29.89,29.57,14,3,17,0.00
2013-6-8,93.2,76.9,62.6,58.4,52.0,45.7,74,45,22,29.86,29.61,12,4,18,0.00
2013-6-9,92.3,72.1,57.4,54.5,46.3,28.1,86,48,11,29.88,29.65,15,6,22,0.00
2013-6-10,78.8,63.7,50.4,51.7,47.5,36.7,99,61,22,29.93,29.74,20,6,27,0.00
2013-6-11,91.0,73.0,54.3,52.7,42.4,28.1,71,40,11,29.95,29.72,14,4,18,0.00
2013-6-12,84.4,71.5,59.5,54.7,48.7,37.9,76,48,21,29.97,29.77,17,4,21,0.00
2013-6-13,86.4,71.6,55.9,52.9,43.9,29.8,83,44,14,29.99,29.74,17,4,21,0.00
2013-6-14,88.5,71.0,54.0,49.7,34.5,17.1,69,30,11,29.93,29.67,14,4,20,0.00
2013-6-15,82.2,65.5,51.4,51.5,44.0,34.8,87,51,19,29.98,29.74,14,5,23,0.00
2013-6-16,87.8,70.6,53.1,47.4,40.1,29.7,62,36,13,30.00,29.78,13,4,17,0.00
2013-6-17,90.0,74.9,59.2,43.2,34.5,25.7,38,24,13,29.97,29.72,17,4,23,0.00
2013-6-18,85.6,71.4,57.4,50.4,37.1,23.9,63,31,15,29.91,29.68,17,5,24,0.00
2013-6-19,86.0,69.0,54.5,81.1,32.3,16.3,97,32,11,29.88,29.65,16,4,21,0.00
2013-6-20,87.1,70.4,53.4,43.2,27.5,14.8,35,21,11,29.87,29.64,15,4,20,0.00
2013-6-21,85.8,70.4,54.0,47.9,34.6,20.7,54,29,14,29.89,29.69,14,5,19,0.00
2013-6-22,87.1,71.9,57.2,53.2,44.4,29.6,65,40,13,29.89,29.67,13,4,19,0.00
2013-6-23,78.6,65.9,55.4,54.1,50.1,45.8,86,59,35,29.85,29.66,14,5,20,0.00
2013-6-24,69.3,59.7,53.1,55.6,53.7,51.0,98,82,58,29.93,29.80,14,6,19,0.00
2013-6-25,86.4,69.7,53.6,59.2,55.2,52.3,99,65,35,29.98,29.77,12,4,17,0.17
2013-6-26,93.0,78.3,64.0,57.7,55.0,51.0,71,47,26,29.96,29.76,14,4,21,0.00
2013-6-27,95.4,80.8,65.8,56.7,54.0,48.4,66,42,24,30.01,29.82,14,4,21,0.00
2013-6-28,99.7,83.3,66.6,58.4,52.4,37.8,56,38,13,30.00,29.71,15,4,21,0.00
2013-6-29,105.3,88.8,73.4,53.6,47.5,35.1,49,27,11,29.89,29.60,14,4,20,0.00
2013-6-30,106.0,90.1,75.4,54.2,44.7,35.1,44,22,11,29.78,29.57,11,4,17,0.00
2013-7-1,96.4,81.4,68.7,57.6,51.7,44.4,59,38,22,29.86,29.69,13,4,20,0.00
2013-7-2,97.9,81.7,68.5,55.6,49.3,35.8,52,35,12,29.92,29.76,17,5,24,0.07
2013-7-3,98.8,81.4,69.3,55.7,50.5,45.4,52,36,20,29.90,29.63,16,4,20,0.00
2013-7-4,95.5,80.8,66.4,55.9,50.8,42.6,58,37,23,29.80,29.58,17,5,25,0.00
2013-7-5,93.0,77.2,64.8,57.0,49.1,42.1,58,38,25,29.79,29.60,17,5,22,0.00
2013-7-6,93.7,76.6,64.2,58.2,52.4,37.2,68,47,14,29.80,29.57,16,5,24,0.00
2013-7-7,95.4,80.1,64.0,56.7,43.3,30.5,74,34,12,29.84,29.62,17,5,23,0.00
2013-7-8,97.9,81.8,66.7,45.0,37.1,28.2,38,22,12,29.95,29.72,15,4,24,0.00
2013-7-9,100.0,85.5,70.7,51.6,35.7,25.5,29,18,11,29.95,29.77,17,4,21,0.00
2013-7-10,95.0,79.7,70.2,58.1,43.9,32.2,64,31,13,29.93,29.77,11,4,14,0.00
2013-7-11,80.6,70.0,62.4,60.4,56.6,51.3,85,64,43,29.95,29.80,10,4,14,0.00
2013-7-12,91.9,74.1,61.0,60.5,54.3,29.4,94,58,11,29.93,29.70,15,4,21,0.00
2013-7-13,95.0,79.0,61.2,53.7,44.7,35.9,65,34,14,29.95,29.71,14,4,20,0.00
2013-7-14,98.8,83.6,69.6,48.7,39.2,32.6,36,22,11,29.89,29.66,14,4,20,0.00
2013-7-15,90.9,78.5,64.9,89.0,36.4,25.2,97,24,12,29.85,29.66,19,6,26,0.00
2013-7-16,88.9,75.0,55.9,80.9,31.7,21.6,97,23,11,29.99,29.74,15,5,22,2.40
2013-7-17,92.7,75.7,58.3,38.2,29.8,20.2,37,20,11,30.04,29.81,11,3,18,0.00
2013-7-18,99.1,79.6,62.6,45.5,32.8,20.0,35,19,11,30.00,29.70,16,3,19,0.00
2013-7-19,96.4,80.3,65.3,53.2,41.3,30.4,50,28,12,29.89,29.65,14,5,18,0.00
2013-7-20,94.6,78.6,66.0,62.2,52.4,39.1,68,42,17,29.84,29.62,11,4,17,0.00
2013-7-21,87.1,74.7,64.9,62.6,59.2,55.1,85,60,44,29.94,29.72,9,3,15,0.02
2013-7-22,87.8,75.2,64.2,63.0,59.1,52.1,85,59,38,29.95,29.77,14,4,20,0.01
2013-7-23,88.7,75.8,63.1,61.2,57.3,53.1,80,55,34,29.99,29.78,14,4,19,0.00
2013-7-24,93.4,78.1,62.8,58.8,54.6,51.3,72,47,27,29.96,29.72,14,4,19,0.00
2013-7-25,95.4,80.6,67.3,56.6,52.5,48.6,56,40,23,29.96,29.75,17,5,27,0.00
2013-7-26,88.5,78.5,70.2,60.2,55.6,49.7,63,46,33,29.99,29.87,10,3,13,0.00
2013-7-27,94.6,78.7,65.3,59.5,56.1,50.9,72,49,25,29.99,29.72,14,4,20,0.00
2013-7-28,90.9,74.6,63.3,57.1,48.1,31.2,74,44,12,29.88,29.65,18,5,23,0.00
2013-7-29,87.3,72.0,58.3,48.7,44.5,36.9,61,40,22,30.00,29.78,17,4,20,0.00
2013-7-30,88.0,73.4,60.6,48.7,43.5,33.3,60,37,17,30.07,29.85,16,4,19,0.00
2013-7-31,88.3,72.1,55.8,50.5,46.1,42.2,61,42,22,30.09,29.82,13,4,21,0.00
2013-8-1,88.2,71.9,54.7,51.7,44.4,29.0,61,42,12,30.00,29.73,13,4,17,0.00
2013-8-2,85.1,71.4,55.9,52.7,44.3,28.0,70,42,14,29.95,29.73,14,4,23,0.00
2013-8-3,87.8,71.1,53.4,52.3,44.3,27.3,82,47,12,29.99,29.76,14,4,19,0.00
2013-8-4,89.8,72.2,55.4,51.7,40.0,26.4,74,39,11,30.01,29.76,16,4,24,0.00
2013-8-5,90.9,74.4,59.5,45.4,33.1,21.5,57,25,11,29.99,29.75,18,5,22,0.00
2013-8-6,88.3,72.5,57.7,44.9,33.5,21.4,54,27,11,30.01,29.80,17,5,25,0.32
2013-8-7,86.2,70.5,57.6,47.4,38.7,22.2,60,36,11,30.02,29.82,19,5,24,0.00
2013-8-8,85.8,69.1,54.5,49.4,39.3,23.4,66,40,12,30.00,29.75,18,5,24,0.00
2013-8-9,56.1,53.0,50.5,46.4,44.2,41.8,76,72,67,29.97,29.94,3,2,4,0.00
2013-8-10,83.3,74.8,50.5,53.1,46.5,37.8,73,39,21,29.98,29.80,15,6,20,0.00
2013-8-11,87.8,71.7,57.0,50.7,45.7,36.8,66,43,19,29.99,29.75,11,4,19,0.00
2013-8-12,90.3,74.4,58.6,52.9,45.9,38.2,63,39,21,29.95,29.73,15,4,19,0.00
2013-8-13,95.5,79.0,63.5,50.7,40.1,29.8,56,27,12,29.93,29.70,13,4,18,0.00
2013-8-14,96.8,82.6,66.7,48.2,32.6,21.6,47,17,11,29.90,29.68,13,4,20,0.00
2013-8-15,98.2,82.2,68.7,41.9,32.4,18.9,34,17,11,29.92,29.69,17,5,22,0.04
2013-8-16,94.8,80.8,67.1,54.6,45.6,38.0,41,30,18,29.94,29.73,17,5,24,0.24
2013-8-17,96.1,80.5,65.8,50.7,39.6,32.1,37,25,13,29.95,29.65,17,4,23,0.00
2013-8-18,100.4,82.4,66.4,57.0,43.8,32.7,47,27,11,29.86,29.60,21,5,27,0.02
2013-8-19,95.9,80.7,69.8,61.5,56.0,47.6,63,44,29,29.90,29.68,21,8,29,0.01
2013-8-20,95.4,78.7,65.3,52.3,44.8,25.6,56,34,13,29.89,29.67,14,4,21,0.00
2013-8-21,96.3,80.4,64.2,46.1,39.3,26.5,47,26,12,29.92,29.68,15,4,21,0.00
2013-8-22,95.7,82.2,65.7,45.6,37.3,28.3,39,21,12,29.93,29.67,18,5,24,0.00
2013-8-23,95.4,78.4,62.1,43.6,33.9,25.2,39,22,11,29.88,29.59,15,4,19,0.00
2013-8-24,93.6,75.8,58.1,40.4,33.7,21.7,43,24,11,29.89,29.60,17,4,25,0.00
2013-8-25,93.4,76.3,60.3,46.9,33.7,20.5,51,24,11,29.93,29.68,15,4,20,0.00
2013-8-26,88.9,74.4,66.9,65.5,54.6,23.1,86,53,18,29.94,29.73,11,3,13,0.00
2013-8-27,90.1,76.2,66.9,62.8,59.7,56.0,79,58,37,29.89,29.65,11,4,17,0.00
2013-8-28,95.0,79.0,65.5,61.3,56.6,51.5,73,49,28,29.90,29.66,16,4,20,0.00
2013-8-29,97.9,81.9,66.4,56.9,52.0,46.7,61,38,22,29.95,29.72,14,3,17,0.00
2013-8-30,93.6,80.1,69.3,65.4,56.6,46.3,74,46,31,29.98,29.78,14,4,19,0.00
2013-8-31,89.2,77.6,70.5,66.7,64.4,62.3,82,66,43,29.95,29.77,21,7,25,0.00
2013-9-1,90.5,76.7,66.6,65.7,63.0,56.7,94,66,35,29.92,29.71,16,6,21,0.02
2013-9-2,91.9,78.3,65.7,63.2,58.7,52.4,85,55,27,29.91,29.67,16,4,22,0.00
2013-9-3,95.2,80.9,68.7,58.4,54.1,50.1,62,42,24,29.90,29.69,15,4,21,0.00
2013-9-4,97.2,81.5,67.8,56.5,52.8,48.8,61,40,22,29.94,29.68,14,3,23,0.00
2013-9-5,96.8,82.6,70.0,56.5,50.4,44.1,52,34,18,29.90,29.69,17,4,20,0.00
2013-9-6,96.4,82.3,68.5,51.9,46.0,39.4,44,30,17,29.90,29.65,14,5,21,0.00
2013-9-7,95.7,81.4,68.7,47.1,39.1,33.1,34,23,13,29.88,29.64,14,4,18,0.00
2013-9-8,94.5,79.5,65.7,46.1,39.3,33.1,35,25,14,29.86,29.60,13,3,19,0.00
2013-9-9,93.0,78.6,66.2,52.6,46.6,39.6,49,34,22,29.78,29.57,14,4,18,0.00
2013-9-10,85.5,71.4,60.4,48.7,42.8,37.6,62,38,20,29.92,29.69,13,4,18,0.00
2013-9-11,85.5,69.8,56.7,52.4,47.6,39.1,75,49,22,29.98,29.76,14,4,17,0.00
2013-9-12,90.0,73.1,57.4,52.2,41.7,28.1,73,40,11,29.96,29.68,14,4,19,0.00
2013-9-13,93.9,77.6,63.1,51.5,42.1,34.0,46,30,14,29.87,29.53,14,3,19,0.00
2013-9-14,96.6,81.9,70.9,49.0,42.6,30.4,41,27,12,29.70,29.49,12,4,17,0.00
2013-9-15,97.2,80.8,66.4,46.6,39.9,34.8,44,25,12,29.76,29.55,16,5,24,0.00
2013-9-16,94.3,77.7,65.7,44.1,34.9,28.5,30,22,14,29.83,29.60,18,5,22,0.00
2013-9-17,87.8,72.2,57.4,44.9,35.1,25.7,55,28,12,29.82,29.55,20,5,25,0.00
2013-9-18,87.1,68.9,55.4,53.6,41.8,26.5,70,42,13,29.81,29.57,11,3,15,0.00
2013-9-19,91.0,74.6,63.1,53.2,38.1,25.2,63,31,11,29.80,29.58,17,4,20,0.00
2013-9-20,81.7,68.0,56.5,57.5,51.4,44.1,99,59,33,29.88,29.67,17,5,21,3.08
2013-9-21,74.3,60.4,52.9,56.4,52.0,44.8,99,77,38,29.89,29.66,21,7,30,0.11
2013-9-22,72.3,59.7,47.1,49.6,37.4,24.8,89,48,18,29.90,29.71,17,5,23,0.00
2013-9-23,84.4,67.5,55.2,41.2,35.6,25.5,57,34,13,29.94,29.74,16,6,22,0.00
2013-9-24,86.0,71.0,57.7,36.3,31.0,24.9,36,24,13,29.96,29.71,16,6,21,0.00
2013-9-25,75.0,62.7,50.7,53.6,44.5,33.6,89,55,29,29.84,29.56,17,8,24,0.00
2013-9-26,66.7,56.0,46.8,46.7,31.0,20.1,77,42,17,29.95,29.71,17,4,21,0.01
2013-9-27,72.5,60.4,49.1,31.2,22.7,16.3,46,25,12,30.05,29.88,14,5,24,0.00
2013-9-28,79.9,65.3,55.2,25.7,21.8,18.2,26,19,12,30.12,29.88,14,5,19,0.06
2013-9-29,85.1,68.3,54.1,31.4,23.9,15.1,30,20,11,30.12,29.84,10,4,14,0.00
2013-9-30,88.0,69.2,55.0,35.8,29.4,21.8,41,25,12,30.03,29.71,11,3,17,0.00
2013-10-1,82.4,67.2,52.9,50.6,39.0,29.7,74,38,17,29.95,29.73,11,4,15,0.00
2013-10-2,76.8,62.0,51.8,54.5,50.7,46.3,97,70,35,29.95,29.74,13,5,18,3.95
2013-10-3,73.9,59.7,48.6,50.6,42.3,29.7,93,57,21,29.95,29.70,14,4,17,0.00
2013-10-4,68.7,60.0,54.3,30.2,18.8,14.1,36,20,16,30.13,29.90,21,10,28,0.02
2013-10-5,69.1,62.5,56.5,21.4,19.8,17.8,25,19,15,30.22,30.08,21,10,27,0.05
2013-10-6,80.4,67.0,56.7,24.8,20.2,16.5,23,17,12,30.18,29.92,15,5,21,0.00
2013-10-7,82.4,68.4,52.3,30.1,20.8,16.9,29,17,11,30.01,29.76,15,5,19,0.00
2013-10-8,73.2,59.0,46.4,49.9,33.7,20.6,96,45,15,29.95,29.68,14,5,21,0.00
2013-10-9,50.4,47.1,41.2,48.7,43.4,38.7,99,87,71,29.84,29.66,19,9,27,0.10
2013-10-10,61.0,47.7,36.1,44.3,40.4,35.4,99,79,48,30.08,29.84,12,4,17,0.00
2013-10-11,74.1,54.1,41.0,45.5,39.1,30.3,99,66,21,30.09,29.82,8,2,11,0.04
2013-10-12,74.1,58.8,46.4,42.7,35.4,23.9,81,47,16,30.03,29.76,14,4,19,0.00
2013-10-13,66.6,54.2,42.6,46.4,41.7,36.9,97,66,36,30.06,29.84,11,4,14,0.00
2013-10-14,71.6,59.6,49.3,39.5,30.7,21.6,66,38,16,30.11,29.89,16,6,23,0.01
2013-10-15,73.0,62.9,53.6,25.8,21.7,18.5,28,21,14,30.02,29.86,16,6,21,0.00
2013-10-16,71.4,62.9,54.7,22.3,19.5,15.5,24,19,14,30.12,29.96,13,5,18,0.00
2013-10-17,79.3,63.7,54.7,28.8,23.3,19.2,33,22,13,30.08,29.80,11,3,14,0.00
2013-10-18,79.0,65.4,55.2,27.4,23.0,18.7,31,21,13,30.03,29.86,16,4,23,0.00
2013-10-19,80.4,67.0,56.1,27.2,21.5,17.4,29,18,12,30.06,29.87,12,3,18,0.00
2013-10-20,84.2,66.3,53.1,43.1,27.6,17.9,56,26,12,30.05,29.74,11,3,14,0.02
2013-10-21,80.1,65.4,51.8,37.7,23.4,17.0,55,22,12,30.00,29.79,12,4,19,0.04
2013-10-22,80.2,67.9,59.0,27.1,21.3,17.3,22,17,12,30.00,29.79,11,4,17,0.00
2013-10-23,80.6,66.1,51.1,47.1,28.0,18.5,76,29,12,29.97,29.72,13,4,17,0.00
2013-10-24,82.9,62.4,46.8,47.0,36.1,22.6,90,44,12,30.04,29.77,10,2,14,0.02
2013-10-25,82.9,67.6,54.3,32.1,24.6,20.0,34,21,11,30.08,29.89,9,3,12,0.11
2013-10-26,80.1,68.1,58.6,28.3,23.0,19.8,31,19,12,30.10,29.89,12,4,16,0.69
2013-10-27,78.3,63.9,49.6,49.1,29.8,16.5,97,33,14,30.03,29.67,18,7,21,8.69
2013-10-28,56.1,48.8,43.3,49.0,41.0,35.5,99,76,46,29.94,29.69,23,14,34,0.10
2013-10-29,54.1,46.6,40.3,44.3,40.4,35.3,99,81,53,30.06,29.88,13,5,21,0.00
2013-10-30,61.7,50.5,40.5,42.4,33.0,26.9,99,55,27,30.11,29.95,12,4,16,3.48
2013-10-31,68.2,55.6,45.0,32.0,25.9,15.8,59,34,15,30.15,29.97,15,6,21,0.00
2013-11-1,72.9,61.8,54.5,23.1,20.6,16.5,25,21,13,30.17,29.95,17,7,21,0.00
2013-11-2,76.1,61.3,50.4,29.5,24.2,19.4,43,25,13,30.07,29.76,13,4,16,20.67
2013-11-3,68.2,54.2,43.0,48.7,37.3,26.7,99,57,26,29.94,29.72,13,4,17,0.00
2013-11-4,63.5,51.5,44.4,46.0,36.2,21.7,97,62,22,30.01,29.73,11,3,15,0.00
2013-11-5,60.6,53.0,46.0,27.0,16.3,12.4,45,24,19,30.23,30.00,18,9,28,0.00
2013-11-6,67.6,56.1,45.5,19.3,15.5,7.9,24,20,15,30.33,30.13,18,9,24,0.00
2013-11-7,70.0,60.1,54.5,19.9,18.0,14.3,22,19,13,30.21,30.00,15,7,21,0.00
2013-11-8,78.3,61.5,48.7,26.6,19.7,13.5,41,21,12,30.08,29.83,11,3,14,0.00
2013-11-9,75.9,58.5,45.5,28.6,21.2,14.6,47,26,12,30.14,29.88,8,2,11,0.00
2013-11-10,73.4,61.1,50.7,24.5,18.0,14.4,25,19,12,30.14,29.98,9,4,13,0.00
2013-11-11,72.1,63.5,57.2,21.6,19.7,18.2,23,19,13,30.16,29.99,14,6,19,0.00
2013-11-12,68.7,64.9,59.7,22.0,19.6,17.6,22,18,14,30.18,30.10,11,6,15,0.00
2013-11-13,74.8,65.8,58.1,24.1,19.6,16.3,22,17,12,30.16,29.92,14,6,19,0.00
2013-11-14,80.2,66.5,57.6,25.3,21.8,18.2,26,19,12,30.02,29.71,11,5,17,0.00
2013-11-15,63.5,55.0,47.3,49.4,38.7,22.9,99,59,23,29.75,29.58,12,6,16,0.00
2013-11-16,55.0,50.1,45.0,47.7,44.6,42.9,99,82,65,29.95,29.74,14,9,19,0.00
2013-11-17,64.6,50.5,37.9,47.8,40.7,33.0,99,73,34,30.12,29.90,7,2,9,0.00
2013-11-18,66.0,53.0,44.4,48.5,42.1,36.7,99,69,40,30.16,29.96,10,4,14,0.00
2013-11-19,60.4,49.7,43.3,50.8,44.8,42.1,99,85,53,30.10,29.88,11,5,15,0.00
2013-11-20,58.3,51.0,44.8,51.2,46.1,43.4,99,85,58,30.05,29.85,11,5,12,20.67
2013-11-21,57.2,48.4,39.9,55.1,46.2,39.7,99,93,62,29.98,29.76,22,6,31,1.08
2013-11-22,40.3,37.6,34.3,39.6,36.9,33.3,99,97,94,30.09,29.97,19,8,24,3.56
2013-11-23,45.5,40.5,36.9,40.1,37.9,35.5,99,91,74,30.19,30.08,14,5,17,0.00
2013-11-24,54.5,45.5,40.1,41.3,38.1,34.5,99,76,54,30.27,30.11,14,5,19,1.55
2013-11-25,58.5,50.1,41.4,40.2,36.4,34.1,82,61,43,30.28,30.17,10,4,14,0.05
2013-11-26,59.4,52.1,46.6,41.6,36.3,33.0,65,55,44,30.27,30.08,15,6,24,0.02
2013-11-27,57.7,51.0,46.4,39.5,36.7,33.3,67,58,45,30.12,29.90,18,8,24,0.00
2013-11-28,59.5,50.1,45.0,38.1,34.3,31.7,69,55,41,30.10,29.90,14,5,21,0.00
2013-11-29,50.7,48.6,45.9,42.2,37.7,33.7,79,66,56,30.24,30.09,14,5,19,0.00
2013-11-30,60.8,52.6,46.8,38.0,35.9,33.0,69,54,36,30.26,30.09,14,5,21,0.00
2013-12-1,63.9,53.6,45.7,33.4,30.0,22.5,58,42,25,30.33,30.12,14,5,17,0.03
2013-12-2,72.3,58.4,48.4,29.9,23.4,17.3,46,28,13,30.20,29.89,11,4,15,0.00
2013-12-3,62.2,51.0,41.2,47.0,35.5,24.3,96,58,29,29.95,29.63,19,7,25,0.00
2013-12-4,46.0,38.8,30.2,37.8,16.6,9.1,86,42,23,30.02,29.78,15,6,20,0.00
2013-12-5,46.2,36.0,29.7,22.1,12.1,4.7,69,39,22,30.18,29.96,12,4,14,0.00
2013-12-6,48.9,37.4,27.5,34.4,28.5,18.3,93,72,43,30.21,30.03,14,5,19,0.00
2013-12-7,43.7,35.8,26.4,39.2,30.4,14.4,99,82,44,30.21,29.97,27,9,36,0.00
2013-12-8,40.5,31.8,24.6,19.2,13.0,7.0,68,46,29,30.32,30.12,13,5,18,0.00
2013-12-9,41.2,33.7,28.6,8.2,2.2,-2.0,40,26,21,30.49,30.28,19,11,32,0.00
2013-12-10,43.2,36.4,29.8,7.4,2.8,-2.0,25,24,21,30.47,30.19,28,13,34,0.00
2013-12-11,49.6,42.8,36.0,13.4,7.3,-0.1,25,23,21,30.32,30.18,19,10,25,0.00
2013-12-12,56.7,45.9,39.2,18.3,10.5,6.8,31,24,20,30.29,30.12,13,5,17,0.00
2013-12-13,63.0,48.2,34.3,26.2,15.3,7.1,57,28,18,30.32,30.07,12,3,17,0.00
2013-12-14,58.8,52.4,46.2,19.1,15.4,12.4,28,23,20,30.38,30.25,20,10,30,0.01
2013-12-15,59.4,52.1,43.2,21.4,16.0,10.8,30,24,21,30.40,30.19,19,10,25,0.00
2013-12-16,63.7,58.0,53.2,21.6,18.0,14.6,25,21,18,30.25,30.12,18,11,27,0.00
2013-12-17,66.2,59.8,55.6,22.6,20.2,18.3,25,21,16,30.22,30.03,17,9,24,0.00
2013-12-18,67.6,57.1,44.2,47.5,27.9,19.1,98,40,17,30.05,29.77,14,5,19,0.00
2013-12-19,49.5,42.3,37.9,43.5,38.7,35.3,98,87,66,29.87,29.66,16,6,21,0.02
2013-12-20,51.1,42.4,36.7,36.2,24.4,10.0,90,52,28,30.00,29.83,11,4,16,0.02
2013-12-21,61.2,45.6,35.2,39.5,27.2,11.1,83,50,34,30.09,29.83,8,2,11,0.05
2013-12-22,60.6,51.0,44.1,32.9,30.6,27.7,62,47,29,30.32,30.08,11,4,15,0.00
2013-12-23,60.6,52.4,48.0,30.2,27.9,26.1,45,39,28,30.38,30.25,17,9,25,0.10
2013-12-24,63.3,54.8,48.0,31.4,27.8,21.9,48,36,25,30.33,30.13,20,8,27,0.00
2013-12-25,62.2,55.9,50.5,24.2,19.1,12.4,33,24,18,30.33,30.18,17,8,27,0.09
2013-12-26,60.4,54.6,49.1,19.0,15.3,11.6,23,21,19,30.29,30.14,22,12,27,0.12
2013-12-27,64.8,56.1,48.6,18.4,15.8,12.3,23,20,16,30.27,30.07,16,6,22,0.01
2013-12-28,74.3,58.8,47.7,23.7,15.7,12.2,24,19,12,30.09,29.81,14,4,19,0.00
2013-12-29,60.4,53.4,47.3,18.6,14.2,12.0,25,21,19,30.23,30.05,17,8,28,0.00
2013-12-30,63.0,52.4,45.5,18.4,14.1,7.9,24,22,17,30.29,30.13,14,5,21,0.00
2013-12-31,72.9,55.3,45.9,19.5,14.7,8.2,24,20,12,30.25,29.97,9,4,11,0.00
2014-1-1,62.4,55.5,48.4,19.6,16.1,12.0,23,21,18,30.19,30.06,21,10,27,0.00
2014-1-2,62.1,56.0,50.5,22.1,18.3,14.1,26,23,20,30.18,30.02,14,8,21,0.00